Richland Center, Wisconsin
Current Conditions -  °F | °C
As of 6:56 PM on Saturday 25 Oct 2014 (Local Time) from KLNR Reporting Station
Clear Clear  
Wind Chill: 62°   Ceiling: Unl
Heat Index: 62°   Visibility: 10mi
Dew Point: 27°   Wind: 9mph
Humidity: 26%   Direction: 290°WNW
Pressure: 29.98"   Gusts: NA
Location:  43.34°N, 90.39°W
Report Text: KLNR 252356Z AUTO 29008KT 10SM CLR 17/M03 A2998 RMK AO2 SLP147 T01671028 10222 20161 53006
Loading
Personal Weather Stations






























Interactive Weather Map
Tropical Storm Tracking
New forecast layout! Learn more

10-Day Weather Forecast

Advertisements
Track Severe Weather on mobile